sensor_id;sensor_type;location;lat;lon;timestamp;pressure;altitude;pressure_sealevel;temperature;humidity
67803;BME280;72185;51.378;-1.342;2024-01-25T00:01:37;101589.17;;;18.23;28.30
67803;BME280;72185;51.378;-1.342;2024-01-25T00:04:02;101593.04;;;18.35;28.17
67803;BME280;72185;51.378;-1.342;2024-01-25T00:06:28;101587.31;;;18.45;28.27
67803;BME280;72185;51.378;-1.342;2024-01-25T00:08:53;101587.97;;;17.95;28.28
67803;BME280;72185;51.378;-1.342;2024-01-25T00:11:19;101590.74;;;18.45;28.26
67803;BME280;72185;51.378;-1.342;2024-01-25T00:13:44;101590.96;;;18.26;28.22
67803;BME280;72185;51.378;-1.342;2024-01-25T00:16:10;101588.11;;;18.13;28.29
67803;BME280;72185;51.378;-1.342;2024-01-25T00:18:35;101585.87;;;18.33;28.29
67803;BME280;72185;51.378;-1.342;2024-01-25T00:21:01;101579.90;;;18.43;28.22
67803;BME280;72185;51.378;-1.342;2024-01-25T00:23:27;101572.91;;;18.32;28.29
67803;BME280;72185;51.378;-1.342;2024-01-25T00:25:52;101569.45;;;18.19;28.41
67803;BME280;72185;51.378;-1.342;2024-01-25T00:28:18;101561.91;;;18.27;28.32
67803;BME280;72185;51.378;-1.342;2024-01-25T00:30:44;101559.89;;;18.29;28.27
67803;BME280;72185;51.378;-1.342;2024-01-25T00:33:09;101562.14;;;17.97;28.38
67803;BME280;72185;51.378;-1.342;2024-01-25T00:35:35;101561.30;;;18.36;28.21
67803;BME280;72185;51.378;-1.342;2024-01-25T00:38:01;101562.36;;;18.07;28.25
67803;BME280;72185;51.378;-1.342;2024-01-25T00:40:26;101567.07;;;18.12;28.17
67803;BME280;72185;51.378;-1.342;2024-01-25T00:42:53;101570.47;;;18.12;28.16
67803;BME280;72185;51.378;-1.342;2024-01-25T00:45:17;101569.36;;;18.16;28.12
67803;BME280;72185;51.378;-1.342;2024-01-25T00:47:43;101568.13;;;18.32;28.14
67803;BME280;72185;51.378;-1.342;2024-01-25T00:50:09;101564.35;;;18.00;28.25
67803;BME280;72185;51.378;-1.342;2024-01-25T00:52:34;101566.59;;;18.02;28.21
67803;BME280;72185;51.378;-1.342;2024-01-25T00:55:00;101567.49;;;18.28;28.16
67803;BME280;72185;51.378;-1.342;2024-01-25T00:57:25;101563.68;;;18.24;28.20
67803;BME280;72185;51.378;-1.342;2024-01-25T00:59:51;101556.06;;;17.92;28.46
67803;BME280;72185;51.378;-1.342;2024-01-25T01:02:17;101555.72;;;18.20;28.23
67803;BME280;72185;51.378;-1.342;2024-01-25T01:04:42;101557.76;;;18.23;28.17
67803;BME280;72185;51.378;-1.342;2024-01-25T01:07:09;101559.88;;;18.14;28.26
67803;BME280;72185;51.378;-1.342;2024-01-25T01:09:33;101558.15;;;18.31;28.09
67803;BME280;72185;51.378;-1.342;2024-01-25T01:11:59;101551.98;;;18.28;28.07
67803;BME280;72185;51.378;-1.342;2024-01-25T01:14:24;101550.81;;;18.32;28.03
67803;BME280;72185;51.378;-1.342;2024-01-25T01:16:50;101547.09;;;18.08;28.04
67803;BME280;72185;51.378;-1.342;2024-01-25T01:19:16;101545.72;;;18.21;28.12
67803;BME280;72185;51.378;-1.342;2024-01-25T01:21:41;101545.63;;;18.21;28.10
67803;BME280;72185;51.378;-1.342;2024-01-25T01:24:07;101543.38;;;18.24;28.09
67803;BME280;72185;51.378;-1.342;2024-01-25T01:26:32;101538.93;;;18.20;28.11
67803;BME280;72185;51.378;-1.342;2024-01-25T01:28:58;101531.35;;;18.28;28.23
67803;BME280;72185;51.378;-1.342;2024-01-25T01:31:24;101524.62;;;18.06;28.24
67803;BME280;72185;51.378;-1.342;2024-01-25T01:33:49;101519.23;;;18.15;28.14
67803;BME280;72185;51.378;-1.342;2024-01-25T01:36:15;101515.49;;;18.12;28.17
67803;BME280;72185;51.378;-1.342;2024-01-25T01:38:40;101509.16;;;18.08;28.18
67803;BME280;72185;51.378;-1.342;2024-01-25T01:41:06;101505.74;;;18.07;28.17
67803;BME280;72185;51.378;-1.342;2024-01-25T01:43:31;101498.78;;;18.12;28.16
67803;BME280;72185;51.378;-1.342;2024-01-25T01:46:04;101499.91;;;18.00;27.99
67803;BME280;72185;51.378;-1.342;2024-01-25T01:48:22;101495.80;;;18.11;28.14
67803;BME280;72185;51.378;-1.342;2024-01-25T01:50:48;101492.43;;;17.86;28.37
67803;BME280;72185;51.378;-1.342;2024-01-25T01:53:13;101491.12;;;18.11;28.15
67803;BME280;72185;51.378;-1.342;2024-01-25T01:55:40;101490.30;;;18.07;28.19
67803;BME280;72185;51.378;-1.342;2024-01-25T01:58:04;101489.17;;;18.09;28.18
67803;BME280;72185;51.378;-1.342;2024-01-25T02:00:30;101488.53;;;17.97;28.27
67803;BME280;72185;51.378;-1.342;2024-01-25T02:02:56;101484.75;;;17.87;28.39
67803;BME280;72185;51.378;-1.342;2024-01-25T02:05:21;101476.19;;;18.15;28.08
67803;BME280;72185;51.378;-1.342;2024-01-25T02:07:47;101471.97;;;17.95;28.25
67803;BME280;72185;51.378;-1.342;2024-01-25T02:10:13;101470.31;;;18.10;28.16
67803;BME280;72185;51.378;-1.342;2024-01-25T02:12:38;101471.39;;;18.08;28.17
67803;BME280;72185;51.378;-1.342;2024-01-25T02:15:04;101469.32;;;17.98;28.24
67803;BME280;72185;51.378;-1.342;2024-01-25T02:17:30;101460.30;;;18.03;28.21
67803;BME280;72185;51.378;-1.342;2024-01-25T02:19:55;101449.06;;;17.84;28.20
67803;BME280;72185;51.378;-1.342;2024-01-25T02:22:21;101451.70;;;18.00;28.30
67803;BME280;72185;51.378;-1.342;2024-01-25T02:24:46;101458.70;;;18.01;28.25
67803;BME280;72185;51.378;-1.342;2024-01-25T02:27:12;101452.21;;;18.00;28.25
67803;BME280;72185;51.378;-1.342;2024-01-25T02:29:37;101452.95;;;18.29;28.22
67803;BME280;72185;51.378;-1.342;2024-01-25T02:32:03;101463.67;;;17.96;28.34
67803;BME280;72185;51.378;-1.342;2024-01-25T02:34:29;101461.29;;;17.91;28.36
67803;BME280;72185;51.378;-1.342;2024-01-25T02:36:54;101454.56;;;18.09;28.24
67803;BME280;72185;51.378;-1.342;2024-01-25T02:39:20;101445.88;;;17.96;28.40
67803;BME280;72185;51.378;-1.342;2024-01-25T02:41:45;101446.20;;;18.02;28.37
67803;BME280;72185;51.378;-1.342;2024-01-25T02:44:11;101457.28;;;17.99;28.41
67803;BME280;72185;51.378;-1.342;2024-01-25T02:46:37;101459.55;;;17.92;28.49
67803;BME280;72185;51.378;-1.342;2024-01-25T02:49:02;101456.21;;;17.95;28.49
67803;BME280;72185;51.378;-1.342;2024-01-25T02:51:28;101450.67;;;17.83;28.71
67803;BME280;72185;51.378;-1.342;2024-01-25T02:53:54;101443.28;;;17.89;28.69
67803;BME280;72185;51.378;-1.342;2024-01-25T02:56:19;101434.22;;;17.81;28.76
67803;BME280;72185;51.378;-1.342;2024-01-25T02:58:45;101420.66;;;17.83;28.79
67803;BME280;72185;51.378;-1.342;2024-01-25T03:01:10;101404.91;;;17.88;28.75
67803;BME280;72185;51.378;-1.342;2024-01-25T03:03:36;101395.30;;;17.61;28.79
67803;BME280;72185;51.378;-1.342;2024-01-25T03:06:02;101396.32;;;17.87;28.77
67803;BME280;72185;51.378;-1.342;2024-01-25T03:08:27;101392.64;;;17.87;28.82
67803;BME280;72185;51.378;-1.342;2024-01-25T03:10:53;101393.34;;;17.65;28.85
67803;BME280;72185;51.378;-1.342;2024-01-25T03:13:19;101389.52;;;17.77;28.98
67803;BME280;72185;51.378;-1.342;2024-01-25T03:15:44;101369.70;;;17.83;28.94
67803;BME280;72185;51.378;-1.342;2024-01-25T03:18:10;101367.12;;;17.77;29.03
67803;BME280;72185;51.378;-1.342;2024-01-25T03:20:36;101372.69;;;17.74;29.07
67803;BME280;72185;51.378;-1.342;2024-01-25T03:23:01;101371.43;;;17.77;29.09
67803;BME280;72185;51.378;-1.342;2024-01-25T03:25:27;101365.09;;;17.89;28.94
67803;BME280;72185;51.378;-1.342;2024-01-25T03:27:52;101369.95;;;17.63;29.03
67803;BME280;72185;51.378;-1.342;2024-01-25T03:30:18;101374.69;;;17.51;29.19
67803;BME280;72185;51.378;-1.342;2024-01-25T03:32:46;101378.32;;;17.79;29.15
67803;BME280;72185;51.378;-1.342;2024-01-25T03:35:09;101375.90;;;17.70;29.30
67803;BME280;72185;51.378;-1.342;2024-01-25T03:37:35;101378.05;;;17.78;29.24
67803;BME280;72185;51.378;-1.342;2024-01-25T03:40:00;101381.00;;;17.78;29.27
67803;BME280;72185;51.378;-1.342;2024-01-25T03:42:26;101382.41;;;17.74;29.34
67803;BME280;72185;51.378;-1.342;2024-01-25T03:44:52;101375.34;;;17.76;29.36
67803;BME280;72185;51.378;-1.342;2024-01-25T03:47:17;101373.11;;;17.83;29.30
67803;BME280;72185;51.378;-1.342;2024-01-25T03:49:43;101365.74;;;17.81;29.33
67803;BME280;72185;51.378;-1.342;2024-01-25T03:52:08;101357.80;;;17.56;29.39
67803;BME280;72185;51.378;-1.342;2024-01-25T03:54:34;101356.19;;;17.82;29.41
67803;BME280;72185;51.378;-1.342;2024-01-25T03:57:00;101350.23;;;17.90;29.35
67803;BME280;72185;51.378;-1.342;2024-01-25T03:59:25;101345.95;;;17.90;29.36
67803;BME280;72185;51.378;-1.342;2024-01-25T04:01:51;101347.06;;;17.74;29.29
67803;BME280;72185;51.378;-1.342;2024-01-25T04:04:16;101345.09;;;17.90;29.40
67803;BME280;72185;51.378;-1.342;2024-01-25T04:06:43;101340.95;;;17.95;29.37
67803;BME280;72185;51.378;-1.342;2024-01-25T04:09:08;101333.42;;;17.86;29.50
67803;BME280;72185;51.378;-1.342;2024-01-25T04:11:33;101330.16;;;17.75;29.42
67803;BME280;72185;51.378;-1.342;2024-01-25T04:13:59;101325.68;;;17.84;29.60
67803;BME280;72185;51.378;-1.342;2024-01-25T04:16:25;101320.63;;;17.94;29.48
67803;BME280;72185;51.378;-1.342;2024-01-25T04:18:50;101316.40;;;17.75;29.47
67803;BME280;72185;51.378;-1.342;2024-01-25T04:21:16;101314.46;;;17.92;29.56
67803;BME280;72185;51.378;-1.342;2024-01-25T04:23:41;101315.19;;;17.86;29.65
67803;BME280;72185;51.378;-1.342;2024-01-25T04:26:07;101310.83;;;18.00;29.52
67803;BME280;72185;51.378;-1.342;2024-01-25T04:28:33;101310.80;;;17.90;29.65
67803;BME280;72185;51.378;-1.342;2024-01-25T04:30:58;101310.88;;;17.83;29.73
67803;BME280;72185;51.378;-1.342;2024-01-25T04:33:24;101306.26;;;17.92;29.66
67803;BME280;72185;51.378;-1.342;2024-01-25T04:35:49;101299.60;;;18.00;29.61
67803;BME280;72185;51.378;-1.342;2024-01-25T04:38:15;101299.57;;;17.99;29.60
67803;BME280;72185;51.378;-1.342;2024-01-25T04:40:41;101300.93;;;17.97;29.67
67803;BME280;72185;51.378;-1.342;2024-01-25T04:43:06;101301.94;;;17.90;29.75
67803;BME280;72185;51.378;-1.342;2024-01-25T04:45:32;101291.98;;;17.69;29.75
67803;BME280;72185;51.378;-1.342;2024-01-25T04:47:57;101291.53;;;17.94;29.72
67803;BME280;72185;51.378;-1.342;2024-01-25T04:50:23;101288.59;;;17.78;29.72
67803;BME280;72185;51.378;-1.342;2024-01-25T04:52:49;101287.45;;;18.11;29.58
67803;BME280;72185;51.378;-1.342;2024-01-25T04:55:14;101290.73;;;17.51;29.72
67803;BME280;72185;51.378;-1.342;2024-01-25T04:57:40;101284.01;;;17.86;29.89
67803;BME280;72185;51.378;-1.342;2024-01-25T05:00:07;101280.02;;;17.83;29.72
67803;BME280;72185;51.378;-1.342;2024-01-25T05:02:31;101276.19;;;18.06;29.74
67803;BME280;72185;51.378;-1.342;2024-01-25T05:04:56;101278.03;;;18.15;29.65
67803;BME280;72185;51.378;-1.342;2024-01-25T05:07:22;101272.18;;;18.13;29.68
67803;BME280;72185;51.378;-1.342;2024-01-25T05:09:48;101268.60;;;17.65;29.68
67803;BME280;72185;51.378;-1.342;2024-01-25T05:12:13;101270.34;;;17.97;29.65
67803;BME280;72185;51.378;-1.342;2024-01-25T05:14:39;101270.62;;;18.06;29.83
67803;BME280;72185;51.378;-1.342;2024-01-25T05:17:04;101268.55;;;17.91;29.73
67803;BME280;72185;51.378;-1.342;2024-01-25T05:19:30;101266.55;;;17.87;29.81
67803;BME280;72185;51.378;-1.342;2024-01-25T05:21:55;101265.49;;;18.09;29.83
67803;BME280;72185;51.378;-1.342;2024-01-25T05:24:21;101263.33;;;18.11;29.82
67803;BME280;72185;51.378;-1.342;2024-01-25T05:26:46;101264.36;;;17.73;29.70
67803;BME280;72185;51.378;-1.342;2024-01-25T05:29:13;101258.25;;;17.92;29.83
67803;BME280;72185;51.378;-1.342;2024-01-25T05:31:38;101256.75;;;18.05;29.92
67803;BME280;72185;51.378;-1.342;2024-01-25T05:34:03;101252.99;;;18.00;29.75
67803;BME280;72185;51.378;-1.342;2024-01-25T05:36:29;101251.36;;;17.87;29.91
67803;BME280;72185;51.378;-1.342;2024-01-25T05:38:54;101262.10;;;18.13;29.89
67803;BME280;72185;51.378;-1.342;2024-01-25T05:41:20;101257.76;;;17.71;29.83
67803;BME280;72185;51.378;-1.342;2024-01-25T05:43:45;101246.03;;;18.15;29.90
67803;BME280;72185;51.378;-1.342;2024-01-25T05:46:11;101240.30;;;17.96;29.87
67803;BME280;72185;51.378;-1.342;2024-01-25T05:48:37;101231.24;;;17.98;29.83
67803;BME280;72185;51.378;-1.342;2024-01-25T05:51:02;101230.94;;;18.19;29.91
67803;BME280;72185;51.378;-1.342;2024-01-25T05:53:28;101233.57;;;17.69;29.95
67803;BME280;72185;51.378;-1.342;2024-01-25T05:55:53;101233.39;;;17.98;29.91
67803;BME280;72185;51.378;-1.342;2024-01-25T05:58:19;101233.95;;;18.27;29.87
67803;BME280;72185;51.378;-1.342;2024-01-25T06:00:45;101231.01;;;17.82;29.81
67803;BME280;72185;51.378;-1.342;2024-01-25T06:03:10;101229.96;;;18.31;29.83
67803;BME280;72185;51.378;-1.342;2024-01-25T06:05:36;101233.42;;;18.28;29.90
67803;BME280;72185;51.378;-1.342;2024-01-25T06:08:01;101233.82;;;18.15;30.06
67803;BME280;72185;51.378;-1.342;2024-01-25T06:10:27;101235.45;;;18.10;29.83
67803;BME280;72185;51.378;-1.342;2024-01-25T06:12:52;101234.15;;;18.10;29.89
67803;BME280;72185;51.378;-1.342;2024-01-25T06:15:18;101238.03;;;17.82;29.89
67803;BME280;72185;51.378;-1.342;2024-01-25T06:17:43;101246.79;;;18.36;29.89
67803;BME280;72185;51.378;-1.342;2024-01-25T06:20:10;101241.05;;;18.36;29.88
67803;BME280;72185;51.378;-1.342;2024-01-25T06:22:35;101232.12;;;18.08;30.01
67803;BME280;72185;51.378;-1.342;2024-01-25T06:25:00;101224.75;;;18.15;29.90
67803;BME280;72185;51.378;-1.342;2024-01-25T06:27:26;101223.47;;;18.05;30.02
67803;BME280;72185;51.378;-1.342;2024-01-25T06:29:51;101218.44;;;17.86;29.97
67803;BME280;72185;51.378;-1.342;2024-01-25T06:32:17;101219.45;;;17.85;30.00
67803;BME280;72185;51.378;-1.342;2024-01-25T06:34:43;101211.39;;;17.87;29.97
67803;BME280;72185;51.378;-1.342;2024-01-25T06:37:08;101209.36;;;18.29;29.87
67803;BME280;72185;51.378;-1.342;2024-01-25T06:39:34;101208.99;;;18.44;29.89
67803;BME280;72185;51.378;-1.342;2024-01-25T06:42:00;101205.60;;;18.19;29.95
67803;BME280;72185;51.378;-1.342;2024-01-25T06:44:25;101205.18;;;18.26;29.90
67803;BME280;72185;51.378;-1.342;2024-01-25T06:46:51;101206.61;;;18.14;30.07
67803;BME280;72185;51.378;-1.342;2024-01-25T06:49:16;101205.92;;;17.94;29.99
67803;BME280;72185;51.378;-1.342;2024-01-25T06:51:42;101209.95;;;18.22;30.13
67803;BME280;72185;51.378;-1.342;2024-01-25T06:54:07;101206.98;;;18.20;30.00
67803;BME280;72185;51.378;-1.342;2024-01-25T06:56:34;101199.29;;;18.42;29.79
67803;BME280;72185;51.378;-1.342;2024-01-25T06:58:59;101200.74;;;18.16;29.75
67803;BME280;72185;51.378;-1.342;2024-01-25T07:01:24;101205.45;;;18.01;30.02
67803;BME280;72185;51.378;-1.342;2024-01-25T07:03:50;101207.12;;;18.47;29.80
67803;BME280;72185;51.378;-1.342;2024-01-25T07:06:15;101216.99;;;18.11;29.93
67803;BME280;72185;51.378;-1.342;2024-01-25T07:08:41;101203.91;;;18.12;29.89
67803;BME280;72185;51.378;-1.342;2024-01-25T07:11:06;101190.82;;;18.39;29.88
67803;BME280;72185;51.378;-1.342;2024-01-25T07:13:32;101188.99;;;18.39;29.93
67803;BME280;72185;51.378;-1.342;2024-01-25T07:15:58;101188.16;;;18.21;30.15
67803;BME280;72185;51.378;-1.342;2024-01-25T07:18:23;101189.60;;;18.24;30.12
67803;BME280;72185;51.378;-1.342;2024-01-25T07:20:49;101186.64;;;18.10;30.25
67803;BME280;72185;51.378;-1.342;2024-01-25T07:23:14;101187.75;;;17.88;30.21
67803;BME280;72185;51.378;-1.342;2024-01-25T07:25:40;101188.73;;;18.50;30.11
67803;BME280;72185;51.378;-1.342;2024-01-25T07:28:06;101177.22;;;17.97;30.13
67803;BME280;72185;51.378;-1.342;2024-01-25T07:30:31;101165.26;;;17.77;30.35
67803;BME280;72185;51.378;-1.342;2024-01-25T07:32:57;101167.07;;;18.50;30.13
67803;BME280;72185;51.378;-1.342;2024-01-25T07:35:23;101162.22;;;17.82;30.30
67803;BME280;72185;51.378;-1.342;2024-01-25T07:37:48;101162.38;;;18.20;30.22
67803;BME280;72185;51.378;-1.342;2024-01-25T07:40:14;101164.29;;;18.20;30.23
67803;BME280;72185;51.378;-1.342;2024-01-25T07:42:39;101161.99;;;18.43;30.18
67803;BME280;72185;51.378;-1.342;2024-01-25T07:45:06;101158.67;;;17.87;30.29
67803;BME280;72185;51.378;-1.342;2024-01-25T07:47:30;101161.58;;;18.03;30.16
67803;BME280;72185;51.378;-1.342;2024-01-25T07:49:56;101156.59;;;18.15;30.28
67803;BME280;72185;51.378;-1.342;2024-01-25T07:52:21;101155.37;;;18.20;30.28
67803;BME280;72185;51.378;-1.342;2024-01-25T07:54:47;101157.00;;;17.85;30.31
67803;BME280;72185;51.378;-1.342;2024-01-25T07:57:13;101162.94;;;18.02;30.19
67803;BME280;72185;51.378;-1.342;2024-01-25T07:59:38;101166.82;;;17.97;30.27
67803;BME280;72185;51.378;-1.342;2024-01-25T08:02:04;101169.67;;;18.16;30.35
67803;BME280;72185;51.378;-1.342;2024-01-25T08:04:29;101174.67;;;18.30;30.19
67803;BME280;72185;51.378;-1.342;2024-01-25T08:06:55;101175.39;;;18.50;30.24
67803;BME280;72185;51.378;-1.342;2024-01-25T08:09:21;101179.40;;;17.98;30.26
67803;BME280;72185;51.378;-1.342;2024-01-25T08:11:47;101179.98;;;17.67;30.36
67803;BME280;72185;51.378;-1.342;2024-01-25T08:14:12;101177.26;;;18.36;30.37
67803;BME280;72185;51.378;-1.342;2024-01-25T08:16:37;101176.53;;;18.46;30.32
67803;BME280;72185;51.378;-1.342;2024-01-25T08:19:03;101176.83;;;17.73;30.58
67803;BME280;72185;51.378;-1.342;2024-01-25T08:21:28;101177.56;;;18.01;30.56
67803;BME280;72185;51.378;-1.342;2024-01-25T08:23:54;101179.71;;;18.20;30.38
67803;BME280;72185;51.378;-1.342;2024-01-25T08:26:20;101182.02;;;18.02;30.27
67803;BME280;72185;51.378;-1.342;2024-01-25T08:28:46;101179.97;;;17.94;30.40
67803;BME280;72185;51.378;-1.342;2024-01-25T08:31:11;101179.24;;;18.17;30.43
67803;BME280;72185;51.378;-1.342;2024-01-25T08:33:37;101182.24;;;18.03;30.37
67803;BME280;72185;51.378;-1.342;2024-01-25T08:36:02;101183.89;;;18.28;30.38
67803;BME280;72185;51.378;-1.342;2024-01-25T08:38:28;101185.17;;;18.04;30.33
67803;BME280;72185;51.378;-1.342;2024-01-25T08:40:53;101182.17;;;18.51;30.36
67803;BME280;72185;51.378;-1.342;2024-01-25T08:43:19;101180.10;;;18.12;30.28
67803;BME280;72185;51.378;-1.342;2024-01-25T08:45:44;101168.62;;;18.21;30.42
67803;BME280;72185;51.378;-1.342;2024-01-25T08:48:10;101166.85;;;18.06;30.31
67803;BME280;72185;51.378;-1.342;2024-01-25T08:50:35;101162.83;;;18.55;30.32
67803;BME280;72185;51.378;-1.342;2024-01-25T08:53:01;101163.92;;;17.97;30.41
67803;BME280;72185;51.378;-1.342;2024-01-25T08:55:27;101164.13;;;18.27;30.38
67803;BME280;72185;51.378;-1.342;2024-01-25T08:57:52;101162.83;;;18.42;30.46
67803;BME280;72185;51.378;-1.342;2024-01-25T09:00:18;101166.14;;;17.95;30.45
67803;BME280;72185;51.378;-1.342;2024-01-25T09:02:43;101171.02;;;18.48;30.41
67803;BME280;72185;51.378;-1.342;2024-01-25T09:05:09;101163.45;;;18.27;30.42
67803;BME280;72185;51.378;-1.342;2024-01-25T09:07:35;101160.17;;;18.20;30.47
67803;BME280;72185;51.378;-1.342;2024-01-25T09:10:00;101158.69;;;18.04;30.44
67803;BME280;72185;51.378;-1.342;2024-01-25T09:12:26;101153.76;;;18.10;30.30
67803;BME280;72185;51.378;-1.342;2024-01-25T09:14:51;101155.08;;;18.60;30.36
67803;BME280;72185;51.378;-1.342;2024-01-25T09:17:17;101155.79;;;18.31;30.45
67803;BME280;72185;51.378;-1.342;2024-01-25T09:19:42;101149.34;;;18.42;30.34
67803;BME280;72185;51.378;-1.342;2024-01-25T09:22:08;101145.54;;;18.60;30.39
67803;BME280;72185;51.378;-1.342;2024-01-25T09:24:34;101144.13;;;18.43;30.35
67803;BME280;72185;51.378;-1.342;2024-01-25T09:26:59;101139.59;;;18.48;30.58
67803;BME280;72185;51.378;-1.342;2024-01-25T09:29:25;101140.84;;;17.96;30.61
67803;BME280;72185;51.378;-1.342;2024-01-25T09:31:50;101142.54;;;18.05;30.52
67803;BME280;72185;51.378;-1.342;2024-01-25T09:34:16;101142.19;;;18.35;30.49
67803;BME280;72185;51.378;-1.342;2024-01-25T09:36:42;101144.51;;;18.03;30.57
67803;BME280;72185;51.378;-1.342;2024-01-25T09:39:07;101140.77;;;17.97;30.63
67803;BME280;72185;51.378;-1.342;2024-01-25T09:41:33;101136.20;;;18.05;30.56
67803;BME280;72185;51.378;-1.342;2024-01-25T09:43:58;101137.31;;;18.38;30.48
67803;BME280;72185;51.378;-1.342;2024-01-25T09:46:24;101135.27;;;18.03;30.62
67803;BME280;72185;51.378;-1.342;2024-01-25T09:48:50;101136.00;;;18.60;30.56
67803;BME280;72185;51.378;-1.342;2024-01-25T09:51:15;101131.67;;;18.38;30.58
67803;BME280;72185;51.378;-1.342;2024-01-25T09:53:41;101129.40;;;18.05;30.70
67803;BME280;72185;51.378;-1.342;2024-01-25T09:56:08;101129.15;;;18.10;30.64
67803;BME280;72185;51.378;-1.342;2024-01-25T09:58:37;101129.55;;;17.97;30.81
67803;BME280;72185;51.378;-1.342;2024-01-25T10:00:58;101130.25;;;18.16;30.87
67803;BME280;72185;51.378;-1.342;2024-01-25T10:03:23;101135.08;;;17.97;30.83
67803;BME280;72185;51.378;-1.342;2024-01-25T10:05:49;101138.66;;;18.55;30.75
67803;BME280;72185;51.378;-1.342;2024-01-25T10:08:14;101140.47;;;17.98;30.89
67803;BME280;72185;51.378;-1.342;2024-01-25T10:10:40;101138.21;;;18.23;31.12
67803;BME280;72185;51.378;-1.342;2024-01-25T10:13:06;101142.85;;;18.29;30.85
67803;BME280;72185;51.378;-1.342;2024-01-25T10:15:31;101134.72;;;18.27;30.88
67803;BME280;72185;51.378;-1.342;2024-01-25T10:17:57;101134.50;;;18.20;30.66
67803;BME280;72185;51.378;-1.342;2024-01-25T10:20:23;101133.76;;;18.07;30.88
67803;BME280;72185;51.378;-1.342;2024-01-25T10:22:48;101123.46;;;18.63;30.79
67803;BME280;72185;51.378;-1.342;2024-01-25T10:25:14;101123.08;;;18.04;30.92
67803;BME280;72185;51.378;-1.342;2024-01-25T10:27:39;101122.07;;;18.37;30.86
67803;BME280;72185;51.378;-1.342;2024-01-25T10:30:06;101121.92;;;18.11;30.92
67803;BME280;72185;51.378;-1.342;2024-01-25T10:32:30;101132.61;;;18.14;30.85
67803;BME280;72185;51.378;-1.342;2024-01-25T10:34:56;101135.39;;;18.48;30.82
67803;BME280;72185;51.378;-1.342;2024-01-25T10:37:21;101136.44;;;18.45;30.87
67803;BME280;72185;51.378;-1.342;2024-01-25T10:39:48;101131.48;;;18.35;30.64
67803;BME280;72185;51.378;-1.342;2024-01-25T10:42:13;101129.99;;;18.15;30.90
67803;BME280;72185;51.378;-1.342;2024-01-25T10:44:38;101126.53;;;18.23;30.83
67803;BME280;72185;51.378;-1.342;2024-01-25T10:47:06;101124.63;;;18.59;30.76
67803;BME280;72185;51.378;-1.342;2024-01-25T10:49:29;101128.76;;;18.61;30.76
67803;BME280;72185;51.378;-1.342;2024-01-25T10:51:55;101130.53;;;18.28;30.86
67803;BME280;72185;51.378;-1.342;2024-01-25T10:54:20;101126.38;;;18.20;30.90
67803;BME280;72185;51.378;-1.342;2024-01-25T10:56:46;101126.39;;;18.29;30.80
67803;BME280;72185;51.378;-1.342;2024-01-25T10:59:12;101123.26;;;18.28;31.16
67803;BME280;72185;51.378;-1.342;2024-01-25T11:01:37;101125.77;;;18.05;31.17
67803;BME280;72185;51.378;-1.342;2024-01-25T11:04:11;101126.85;;;18.30;31.24
67803;BME280;72185;51.378;-1.342;2024-01-25T11:06:28;101121.45;;;18.06;31.16
67803;BME280;72185;51.378;-1.342;2024-01-25T11:11:19;101114.18;;;18.23;30.93
67803;BME280;72185;51.378;-1.342;2024-01-25T11:13:45;101111.34;;;18.10;31.18
67803;BME280;72185;51.378;-1.342;2024-01-25T11:16:12;101117.74;;;18.11;31.14
67803;BME280;72185;51.378;-1.342;2024-01-25T11:21:04;101113.12;;;18.27;31.02
67803;BME280;72185;51.378;-1.342;2024-01-25T11:23:31;101117.71;;;18.34;30.89
67803;BME280;72185;51.378;-1.342;2024-01-25T11:25:55;101115.80;;;18.23;31.07
67803;BME280;72185;51.378;-1.342;2024-01-25T11:28:18;101108.10;;;18.14;31.19
67803;BME280;72185;51.378;-1.342;2024-01-25T11:30:44;101094.36;;;18.56;31.00
67803;BME280;72185;51.378;-1.342;2024-01-25T11:33:10;101093.77;;;18.34;31.33
67803;BME280;72185;51.378;-1.342;2024-01-25T11:35:36;101084.72;;;18.28;31.37
67803;BME280;72185;51.378;-1.342;2024-01-25T11:38:01;101081.74;;;18.06;31.34
67803;BME280;72185;51.378;-1.342;2024-01-25T11:40:27;101079.39;;;18.03;31.43
67803;BME280;72185;51.378;-1.342;2024-01-25T11:42:52;101074.44;;;17.97;31.58
67803;BME280;72185;51.378;-1.342;2024-01-25T11:45:17;101071.73;;;17.93;31.60
67803;BME280;72185;51.378;-1.342;2024-01-25T11:47:44;101070.14;;;18.25;31.46
67803;BME280;72185;51.378;-1.342;2024-01-25T11:50:10;101063.92;;;18.08;31.39
67803;BME280;72185;51.378;-1.342;2024-01-25T11:52:35;101055.28;;;18.03;31.51
67803;BME280;72185;51.378;-1.342;2024-01-25T11:55:01;101048.60;;;18.38;31.65
67803;BME280;72185;51.378;-1.342;2024-01-25T11:57:26;101046.63;;;18.03;31.47
67803;BME280;72185;51.378;-1.342;2024-01-25T11:59:51;101040.90;;;18.22;31.28
67803;BME280;72185;51.378;-1.342;2024-01-25T12:02:17;101039.35;;;17.98;31.55
67803;BME280;72185;51.378;-1.342;2024-01-25T12:04:42;101042.20;;;18.43;31.29
67803;BME280;72185;51.378;-1.342;2024-01-25T12:07:08;101038.81;;;18.13;31.43
67803;BME280;72185;51.378;-1.342;2024-01-25T12:09:33;101040.31;;;18.01;31.57
67803;BME280;72185;51.378;-1.342;2024-01-25T12:12:00;101038.63;;;18.38;31.41
67803;BME280;72185;51.378;-1.342;2024-01-25T12:14:24;101036.57;;;18.04;31.46
67803;BME280;72185;51.378;-1.342;2024-01-25T12:16:50;101030.56;;;18.44;31.38
67803;BME280;72185;51.378;-1.342;2024-01-25T12:19:16;101022.03;;;18.13;31.37
67803;BME280;72185;51.378;-1.342;2024-01-25T12:21:44;101025.08;;;18.08;31.46
67803;BME280;72185;51.378;-1.342;2024-01-25T12:24:08;101021.65;;;18.29;31.54
67803;BME280;72185;51.378;-1.342;2024-01-25T12:26:34;101018.73;;;18.20;31.37
67803;BME280;72185;51.378;-1.342;2024-01-25T12:28:59;101019.34;;;18.25;31.31
67803;BME280;72185;51.378;-1.342;2024-01-25T12:31:23;101020.58;;;18.29;31.25
67803;BME280;72185;51.378;-1.342;2024-01-25T12:33:49;101017.78;;;18.40;31.37
67803;BME280;72185;51.378;-1.342;2024-01-25T12:36:15;101020.82;;;18.37;31.08